sensor_id;sensor_type;location;lat;lon;timestamp;P1;durP1;ratioP1;P2;durP2;ratioP2
79592;SDS011;69074;45.164;9.704;2023-05-07T00:01:32;22.8;;;20.6;;
79592;SDS011;69074;45.164;9.704;2023-05-07T00:03:57;51.1;;;45.5;;
79592;SDS011;69074;45.164;9.704;2023-05-07T00:06:22;51.1;;;45.5;;
79592;SDS011;69074;45.164;9.704;2023-05-07T00:08:47;51.1;;;45.5;;
79592;SDS011;69074;45.164;9.704;2023-05-07T00:11:12;51.1;;;45.5;;
79592;SDS011;69074;45.164;9.704;2023-05-07T00:13:37;51.1;;;45.5;;
79592;SDS011;69074;45.164;9.704;2023-05-07T00:16:03;51.1;;;45.5;;
79592;SDS011;69074;45.164;9.704;2023-05-07T00:18:27;37.0;;;33.2;;
79592;SDS011;69074;45.164;9.704;2023-05-07T00:20:52;37.0;;;33.2;;
79592;SDS011;69074;45.164;9.704;2023-05-07T00:23:17;37.0;;;33.2;;
79592;SDS011;69074;45.164;9.704;2023-05-07T00:25:42;37.0;;;33.2;;
79592;SDS011;69074;45.164;9.704;2023-05-07T00:28:07;37.0;;;33.2;;
79592;SDS011;69074;45.164;9.704;2023-05-07T00:30:32;37.0;;;33.2;;
79592;SDS011;69074;45.164;9.704;2023-05-07T00:32:57;37.0;;;33.2;;
79592;SDS011;69074;45.164;9.704;2023-05-07T00:35:22;33.5;;;30.0;;
79592;SDS011;69074;45.164;9.704;2023-05-07T00:37:47;33.5;;;30.0;;
79592;SDS011;69074;45.164;9.704;2023-05-07T00:40:12;33.5;;;30.0;;
79592;SDS011;69074;45.164;9.704;2023-05-07T00:42:37;33.5;;;30.0;;
79592;SDS011;69074;45.164;9.704;2023-05-07T00:45:02;33.5;;;30.0;;
79592;SDS011;69074;45.164;9.704;2023-05-07T00:47:28;33.5;;;30.0;;
79592;SDS011;69074;45.164;9.704;2023-05-07T00:49:52;31.7;;;28.4;;
79592;SDS011;69074;45.164;9.704;2023-05-07T00:52:17;31.7;;;28.4;;
79592;SDS011;69074;45.164;9.704;2023-05-07T00:54:42;31.7;;;28.4;;
79592;SDS011;69074;45.164;9.704;2023-05-07T00:57:07;31.7;;;28.4;;
79592;SDS011;69074;45.164;9.704;2023-05-07T00:59:32;31.7;;;28.4;;
79592;SDS011;69074;45.164;9.704;2023-05-07T01:01:58;31.7;;;28.4;;
79592;SDS011;69074;45.164;9.704;2023-05-07T01:04:22;30.0;;;26.8;;
79592;SDS011;69074;45.164;9.704;2023-05-07T01:06:47;30.0;;;26.8;;
79592;SDS011;69074;45.164;9.704;2023-05-07T01:09:12;30.0;;;26.8;;
79592;SDS011;69074;45.164;9.704;2023-05-07T01:11:37;30.0;;;26.8;;
79592;SDS011;69074;45.164;9.704;2023-05-07T01:14:02;30.0;;;26.8;;
79592;SDS011;69074;45.164;9.704;2023-05-07T01:16:27;30.0;;;26.8;;
79592;SDS011;69074;45.164;9.704;2023-05-07T01:18:52;30.1;;;27.0;;
79592;SDS011;69074;45.164;9.704;2023-05-07T01:21:18;30.1;;;27.0;;
79592;SDS011;69074;45.164;9.704;2023-05-07T01:23:43;30.1;;;27.0;;
79592;SDS011;69074;45.164;9.704;2023-05-07T01:26:07;30.1;;;27.0;;
79592;SDS011;69074;45.164;9.704;2023-05-07T01:28:32;30.1;;;27.0;;
79592;SDS011;69074;45.164;9.704;2023-05-07T01:30:59;30.1;;;27.0;;
79592;SDS011;69074;45.164;9.704;2023-05-07T01:33:23;31.6;;;28.3;;
79592;SDS011;69074;45.164;9.704;2023-05-07T01:35:48;31.6;;;28.3;;
79592;SDS011;69074;45.164;9.704;2023-05-07T01:38:12;31.6;;;28.3;;
79592;SDS011;69074;45.164;9.704;2023-05-07T01:40:38;31.6;;;28.3;;
79592;SDS011;69074;45.164;9.704;2023-05-07T01:43:03;31.6;;;28.3;;
79592;SDS011;69074;45.164;9.704;2023-05-07T01:45:28;31.6;;;28.3;;
79592;SDS011;69074;45.164;9.704;2023-05-07T01:47:53;31.6;;;28.3;;
79592;SDS011;69074;45.164;9.704;2023-05-07T01:50:18;32.0;;;28.8;;
79592;SDS011;69074;45.164;9.704;2023-05-07T01:52:43;32.0;;;28.8;;
79592;SDS011;69074;45.164;9.704;2023-05-07T01:55:08;32.0;;;28.8;;
79592;SDS011;69074;45.164;9.704;2023-05-07T01:57:33;32.0;;;28.8;;
79592;SDS011;69074;45.164;9.704;2023-05-07T01:59:58;32.0;;;28.8;;
79592;SDS011;69074;45.164;9.704;2023-05-07T02:02:23;32.0;;;28.8;;
79592;SDS011;69074;45.164;9.704;2023-05-07T02:04:48;35.4;;;31.7;;
79592;SDS011;69074;45.164;9.704;2023-05-07T02:07:13;35.4;;;31.7;;
79592;SDS011;69074;45.164;9.704;2023-05-07T02:09:38;35.4;;;31.7;;
79592;SDS011;69074;45.164;9.704;2023-05-07T02:12:03;35.4;;;31.7;;
79592;SDS011;69074;45.164;9.704;2023-05-07T02:14:28;35.4;;;31.7;;
79592;SDS011;69074;45.164;9.704;2023-05-07T02:16:53;35.4;;;31.7;;
79592;SDS011;69074;45.164;9.704;2023-05-07T02:19:18;33.0;;;29.5;;
79592;SDS011;69074;45.164;9.704;2023-05-07T02:21:43;33.0;;;29.5;;
79592;SDS011;69074;45.164;9.704;2023-05-07T02:24:08;33.0;;;29.5;;
79592;SDS011;69074;45.164;9.704;2023-05-07T02:26:33;33.0;;;29.5;;
79592;SDS011;69074;45.164;9.704;2023-05-07T02:28:58;33.0;;;29.5;;
79592;SDS011;69074;45.164;9.704;2023-05-07T02:31:23;33.0;;;29.5;;
79592;SDS011;69074;45.164;9.704;2023-05-07T02:33:48;33.4;;;29.8;;
79592;SDS011;69074;45.164;9.704;2023-05-07T02:36:13;33.4;;;29.8;;
79592;SDS011;69074;45.164;9.704;2023-05-07T02:38:38;33.4;;;29.8;;
79592;SDS011;69074;45.164;9.704;2023-05-07T02:41:03;33.4;;;29.8;;
79592;SDS011;69074;45.164;9.704;2023-05-07T02:43:28;33.4;;;29.8;;
79592;SDS011;69074;45.164;9.704;2023-05-07T02:45:59;33.4;;;29.8;;
79592;SDS011;69074;45.164;9.704;2023-05-07T02:48:18;32.6;;;29.2;;
79592;SDS011;69074;45.164;9.704;2023-05-07T02:50:43;32.6;;;29.2;;
79592;SDS011;69074;45.164;9.704;2023-05-07T02:53:08;32.6;;;29.2;;
79592;SDS011;69074;45.164;9.704;2023-05-07T02:55:33;32.6;;;29.2;;
79592;SDS011;69074;45.164;9.704;2023-05-07T02:57:58;32.6;;;29.2;;
79592;SDS011;69074;45.164;9.704;2023-05-07T03:00:23;32.6;;;29.2;;
79592;SDS011;69074;45.164;9.704;2023-05-07T03:02:48;32.6;;;29.2;;
79592;SDS011;69074;45.164;9.704;2023-05-07T03:05:13;38.0;;;32.1;;
79592;SDS011;69074;45.164;9.704;2023-05-07T03:07:38;38.0;;;32.1;;
79592;SDS011;69074;45.164;9.704;2023-05-07T03:10:03;38.0;;;32.1;;
79592;SDS011;69074;45.164;9.704;2023-05-07T03:12:28;38.0;;;32.1;;
79592;SDS011;69074;45.164;9.704;2023-05-07T03:14:53;38.0;;;32.1;;
79592;SDS011;69074;45.164;9.704;2023-05-07T03:17:18;38.0;;;32.1;;
79592;SDS011;69074;45.164;9.704;2023-05-07T03:19:43;34.4;;;30.6;;
79592;SDS011;69074;45.164;9.704;2023-05-07T03:22:08;34.4;;;30.6;;
79592;SDS011;69074;45.164;9.704;2023-05-07T03:24:33;34.4;;;30.6;;
79592;SDS011;69074;45.164;9.704;2023-05-07T03:26:58;34.4;;;30.6;;
79592;SDS011;69074;45.164;9.704;2023-05-07T03:29:23;34.4;;;30.6;;
79592;SDS011;69074;45.164;9.704;2023-05-07T03:31:48;34.4;;;30.6;;
79592;SDS011;69074;45.164;9.704;2023-05-07T03:34:13;35.3;;;31.5;;
79592;SDS011;69074;45.164;9.704;2023-05-07T03:36:38;35.3;;;31.5;;
79592;SDS011;69074;45.164;9.704;2023-05-07T03:39:03;35.3;;;31.5;;
79592;SDS011;69074;45.164;9.704;2023-05-07T03:41:28;35.3;;;31.5;;
79592;SDS011;69074;45.164;9.704;2023-05-07T03:43:53;35.3;;;31.5;;
79592;SDS011;69074;45.164;9.704;2023-05-07T03:46:18;35.3;;;31.5;;
79592;SDS011;69074;45.164;9.704;2023-05-07T03:48:43;35.9;;;32.0;;
79592;SDS011;69074;45.164;9.704;2023-05-07T03:51:08;35.9;;;32.0;;
79592;SDS011;69074;45.164;9.704;2023-05-07T03:53:33;35.9;;;32.0;;
79592;SDS011;69074;45.164;9.704;2023-05-07T03:55:58;35.9;;;32.0;;
79592;SDS011;69074;45.164;9.704;2023-05-07T03:58:23;35.9;;;32.0;;
79592;SDS011;69074;45.164;9.704;2023-05-07T04:00:48;35.9;;;32.0;;
79592;SDS011;69074;45.164;9.704;2023-05-07T04:03:13;36.2;;;32.3;;
79592;SDS011;69074;45.164;9.704;2023-05-07T04:05:38;36.2;;;32.3;;
79592;SDS011;69074;45.164;9.704;2023-05-07T04:08:03;36.2;;;32.3;;
79592;SDS011;69074;45.164;9.704;2023-05-07T04:10:28;36.2;;;32.3;;
79592;SDS011;69074;45.164;9.704;2023-05-07T04:12:53;36.2;;;32.3;;
79592;SDS011;69074;45.164;9.704;2023-05-07T04:15:18;36.2;;;32.3;;
79592;SDS011;69074;45.164;9.704;2023-05-07T04:17:43;36.2;;;32.3;;
79592;SDS011;69074;45.164;9.704;2023-05-07T04:20:08;32.5;;;29.2;;
79592;SDS011;69074;45.164;9.704;2023-05-07T04:22:33;32.5;;;29.2;;
79592;SDS011;69074;45.164;9.704;2023-05-07T04:24:58;32.5;;;29.2;;
79592;SDS011;69074;45.164;9.704;2023-05-07T04:27:23;32.5;;;29.2;;
79592;SDS011;69074;45.164;9.704;2023-05-07T04:29:48;32.5;;;29.2;;
79592;SDS011;69074;45.164;9.704;2023-05-07T04:32:13;32.5;;;29.2;;
79592;SDS011;69074;45.164;9.704;2023-05-07T04:34:38;28.6;;;25.5;;
79592;SDS011;69074;45.164;9.704;2023-05-07T04:37:03;28.6;;;25.5;;
79592;SDS011;69074;45.164;9.704;2023-05-07T04:39:28;28.6;;;25.5;;
79592;SDS011;69074;45.164;9.704;2023-05-07T04:41:53;28.6;;;25.5;;
79592;SDS011;69074;45.164;9.704;2023-05-07T04:44:18;28.6;;;25.5;;
79592;SDS011;69074;45.164;9.704;2023-05-07T04:46:43;28.6;;;25.5;;
79592;SDS011;69074;45.164;9.704;2023-05-07T04:49:08;24.3;;;21.4;;
79592;SDS011;69074;45.164;9.704;2023-05-07T04:51:33;24.3;;;21.4;;
79592;SDS011;69074;45.164;9.704;2023-05-07T04:53:58;24.3;;;21.4;;
79592;SDS011;69074;45.164;9.704;2023-05-07T04:56:23;24.3;;;21.4;;
79592;SDS011;69074;45.164;9.704;2023-05-07T04:58:48;24.3;;;21.4;;
79592;SDS011;69074;45.164;9.704;2023-05-07T05:01:13;24.3;;;21.4;;
79592;SDS011;69074;45.164;9.704;2023-05-07T05:03:38;19.2;;;17.2;;
79592;SDS011;69074;45.164;9.704;2023-05-07T05:06:03;19.2;;;17.2;;
79592;SDS011;69074;45.164;9.704;2023-05-07T05:08:29;19.2;;;17.2;;
79592;SDS011;69074;45.164;9.704;2023-05-07T05:10:53;19.2;;;17.2;;
79592;SDS011;69074;45.164;9.704;2023-05-07T05:13:18;19.2;;;17.2;;
79592;SDS011;69074;45.164;9.704;2023-05-07T05:15:43;19.2;;;17.2;;
79592;SDS011;69074;45.164;9.704;2023-05-07T05:18:08;12.8;;;11.5;;
79592;SDS011;69074;45.164;9.704;2023-05-07T05:20:33;12.8;;;11.5;;
79592;SDS011;69074;45.164;9.704;2023-05-07T05:22:58;12.8;;;11.5;;
79592;SDS011;69074;45.164;9.704;2023-05-07T05:25:23;12.8;;;11.5;;
79592;SDS011;69074;45.164;9.704;2023-05-07T05:27:48;12.8;;;11.5;;
79592;SDS011;69074;45.164;9.704;2023-05-07T05:30:13;12.8;;;11.5;;
79592;SDS011;69074;45.164;9.704;2023-05-07T05:32:38;12.8;;;11.5;;
79592;SDS011;69074;45.164;9.704;2023-05-07T05:35:03;8.0;;;7.0;;
79592;SDS011;69074;45.164;9.704;2023-05-07T05:37:28;8.0;;;7.0;;
79592;SDS011;69074;45.164;9.704;2023-05-07T05:39:53;8.0;;;7.0;;
79592;SDS011;69074;45.164;9.704;2023-05-07T05:42:18;8.0;;;7.0;;
79592;SDS011;69074;45.164;9.704;2023-05-07T05:44:43;8.0;;;7.0;;
79592;SDS011;69074;45.164;9.704;2023-05-07T05:47:08;8.0;;;7.0;;
79592;SDS011;69074;45.164;9.704;2023-05-07T05:49:33;5.7;;;5.1;;
79592;SDS011;69074;45.164;9.704;2023-05-07T05:51:58;5.7;;;5.1;;
79592;SDS011;69074;45.164;9.704;2023-05-07T05:54:23;5.7;;;5.1;;
79592;SDS011;69074;45.164;9.704;2023-05-07T05:56:48;5.7;;;5.1;;
79592;SDS011;69074;45.164;9.704;2023-05-07T05:59:13;5.7;;;5.1;;
79592;SDS011;69074;45.164;9.704;2023-05-07T06:01:38;5.7;;;5.1;;
79592;SDS011;69074;45.164;9.704;2023-05-07T06:04:03;4.7;;;4.3;;
79592;SDS011;69074;45.164;9.704;2023-05-07T06:06:28;4.7;;;4.3;;
79592;SDS011;69074;45.164;9.704;2023-05-07T06:08:53;4.7;;;4.3;;
79592;SDS011;69074;45.164;9.704;2023-05-07T06:11:18;4.7;;;4.3;;
79592;SDS011;69074;45.164;9.704;2023-05-07T06:13:43;4.7;;;4.3;;
79592;SDS011;69074;45.164;9.704;2023-05-07T06:16:08;4.7;;;4.3;;
79592;SDS011;69074;45.164;9.704;2023-05-07T06:18:33;6.7;;;6.0;;
79592;SDS011;69074;45.164;9.704;2023-05-07T06:20:58;6.7;;;6.0;;
79592;SDS011;69074;45.164;9.704;2023-05-07T06:23:23;6.7;;;6.0;;
79592;SDS011;69074;45.164;9.704;2023-05-07T06:25:48;6.7;;;6.0;;
79592;SDS011;69074;45.164;9.704;2023-05-07T06:28:13;6.7;;;6.0;;
79592;SDS011;69074;45.164;9.704;2023-05-07T06:30:38;6.7;;;6.0;;
79592;SDS011;69074;45.164;9.704;2023-05-07T06:33:03;9.1;;;8.2;;
79592;SDS011;69074;45.164;9.704;2023-05-07T06:35:28;9.1;;;8.2;;
79592;SDS011;69074;45.164;9.704;2023-05-07T06:37:53;9.1;;;8.2;;
79592;SDS011;69074;45.164;9.704;2023-05-07T06:40:18;9.1;;;8.2;;
79592;SDS011;69074;45.164;9.704;2023-05-07T06:42:43;9.1;;;8.2;;
79592;SDS011;69074;45.164;9.704;2023-05-07T06:45:08;9.1;;;8.2;;
79592;SDS011;69074;45.164;9.704;2023-05-07T06:47:33;9.1;;;8.2;;
79592;SDS011;69074;45.164;9.704;2023-05-07T06:49:58;8.7;;;7.9;;
79592;SDS011;69074;45.164;9.704;2023-05-07T06:52:23;8.7;;;7.9;;
79592;SDS011;69074;45.164;9.704;2023-05-07T06:54:48;8.7;;;7.9;;
79592;SDS011;69074;45.164;9.704;2023-05-07T06:57:13;8.7;;;7.9;;
79592;SDS011;69074;45.164;9.704;2023-05-07T06:59:38;8.7;;;7.9;;
79592;SDS011;69074;45.164;9.704;2023-05-07T07:02:03;8.7;;;7.9;;
79592;SDS011;69074;45.164;9.704;2023-05-07T07:04:28;9.2;;;8.2;;
79592;SDS011;69074;45.164;9.704;2023-05-07T07:06:53;9.2;;;8.2;;
79592;SDS011;69074;45.164;9.704;2023-05-07T07:09:18;9.2;;;8.2;;
79592;SDS011;69074;45.164;9.704;2023-05-07T07:11:43;9.2;;;8.2;;
79592;SDS011;69074;45.164;9.704;2023-05-07T07:14:08;9.2;;;8.2;;
79592;SDS011;69074;45.164;9.704;2023-05-07T07:16:33;9.2;;;8.2;;
79592;SDS011;69074;45.164;9.704;2023-05-07T07:18:58;15.1;;;8.2;;
79592;SDS011;69074;45.164;9.704;2023-05-07T07:21:23;15.1;;;8.2;;
79592;SDS011;69074;45.164;9.704;2023-05-07T07:23:48;15.1;;;8.2;;
79592;SDS011;69074;45.164;9.704;2023-05-07T07:26:13;15.1;;;8.2;;
79592;SDS011;69074;45.164;9.704;2023-05-07T07:28:42;15.1;;;8.2;;
79592;SDS011;69074;45.164;9.704;2023-05-07T07:31:03;15.1;;;8.2;;
79592;SDS011;69074;45.164;9.704;2023-05-07T07:33:28;26.9;;;11.4;;
79592;SDS011;69074;45.164;9.704;2023-05-07T07:35:53;26.9;;;11.4;;
79592;SDS011;69074;45.164;9.704;2023-05-07T07:38:18;26.9;;;11.4;;
79592;SDS011;69074;45.164;9.704;2023-05-07T07:40:43;26.9;;;11.4;;
79592;SDS011;69074;45.164;9.704;2023-05-07T07:43:08;26.9;;;11.4;;
79592;SDS011;69074;45.164;9.704;2023-05-07T07:45:33;26.9;;;11.4;;
79592;SDS011;69074;45.164;9.704;2023-05-07T07:47:58;26.9;;;11.4;;
79592;SDS011;69074;45.164;9.704;2023-05-07T07:50:23;23.0;;;9.5;;
79592;SDS011;69074;45.164;9.704;2023-05-07T07:52:48;23.0;;;9.5;;
79592;SDS011;69074;45.164;9.704;2023-05-07T07:55:13;23.0;;;9.5;;
79592;SDS011;69074;45.164;9.704;2023-05-07T07:57:38;23.0;;;9.5;;
79592;SDS011;69074;45.164;9.704;2023-05-07T08:00:03;23.0;;;9.5;;
79592;SDS011;69074;45.164;9.704;2023-05-07T08:02:28;23.0;;;9.5;;
79592;SDS011;69074;45.164;9.704;2023-05-07T08:04:53;12.8;;;7.1;;
79592;SDS011;69074;45.164;9.704;2023-05-07T08:07:18;12.8;;;7.1;;
79592;SDS011;69074;45.164;9.704;2023-05-07T08:09:43;12.8;;;7.1;;
79592;SDS011;69074;45.164;9.704;2023-05-07T08:12:08;12.8;;;7.1;;
79592;SDS011;69074;45.164;9.704;2023-05-07T08:14:33;12.8;;;7.1;;
79592;SDS011;69074;45.164;9.704;2023-05-07T08:16:58;12.8;;;7.1;;
79592;SDS011;69074;45.164;9.704;2023-05-07T08:19:23;8.6;;;5.8;;
79592;SDS011;69074;45.164;9.704;2023-05-07T08:21:48;8.6;;;5.8;;
79592;SDS011;69074;45.164;9.704;2023-05-07T08:24:13;8.6;;;5.8;;
79592;SDS011;69074;45.164;9.704;2023-05-07T08:26:38;8.6;;;5.8;;
79592;SDS011;69074;45.164;9.704;2023-05-07T08:29:03;8.6;;;5.8;;
79592;SDS011;69074;45.164;9.704;2023-05-07T08:31:28;8.6;;;5.8;;
79592;SDS011;69074;45.164;9.704;2023-05-07T08:33:53;7.1;;;4.3;;
79592;SDS011;69074;45.164;9.704;2023-05-07T08:36:18;7.1;;;4.3;;
79592;SDS011;69074;45.164;9.704;2023-05-07T08:38:43;7.1;;;4.3;;
79592;SDS011;69074;45.164;9.704;2023-05-07T08:41:09;7.1;;;4.3;;
79592;SDS011;69074;45.164;9.704;2023-05-07T08:43:33;7.1;;;4.3;;
79592;SDS011;69074;45.164;9.704;2023-05-07T08:45:58;7.1;;;4.3;;
79592;SDS011;69074;45.164;9.704;2023-05-07T08:48:24;7.4;;;4.0;;
79592;SDS011;69074;45.164;9.704;2023-05-07T08:50:48;7.4;;;4.0;;
79592;SDS011;69074;45.164;9.704;2023-05-07T08:53:13;7.4;;;4.0;;
79592;SDS011;69074;45.164;9.704;2023-05-07T08:55:38;7.4;;;4.0;;
79592;SDS011;69074;45.164;9.704;2023-05-07T08:58:03;7.4;;;4.0;;
79592;SDS011;69074;45.164;9.704;2023-05-07T09:00:28;7.4;;;4.0;;
79592;SDS011;69074;45.164;9.704;2023-05-07T09:02:53;7.4;;;4.0;;
79592;SDS011;69074;45.164;9.704;2023-05-07T09:05:18;5.2;;;3.6;;
79592;SDS011;69074;45.164;9.704;2023-05-07T09:07:43;5.2;;;3.6;;
79592;SDS011;69074;45.164;9.704;2023-05-07T09:10:08;5.2;;;3.6;;
79592;SDS011;69074;45.164;9.704;2023-05-07T09:12:33;5.2;;;3.6;;
79592;SDS011;69074;45.164;9.704;2023-05-07T09:14:58;5.2;;;3.6;;
79592;SDS011;69074;45.164;9.704;2023-05-07T09:17:23;5.2;;;3.6;;
79592;SDS011;69074;45.164;9.704;2023-05-07T09:19:48;4.4;;;3.6;;
79592;SDS011;69074;45.164;9.704;2023-05-07T09:22:13;4.4;;;3.6;;
79592;SDS011;69074;45.164;9.704;2023-05-07T09:24:38;4.4;;;3.6;;
79592;SDS011;69074;45.164;9.704;2023-05-07T09:27:03;4.4;;;3.6;;
79592;SDS011;69074;45.164;9.704;2023-05-07T09:29:28;4.4;;;3.6;;
79592;SDS011;69074;45.164;9.704;2023-05-07T09:31:53;4.4;;;3.6;;
79592;SDS011;69074;45.164;9.704;2023-05-07T09:34:18;5.6;;;2.8;;
79592;SDS011;69074;45.164;9.704;2023-05-07T09:36:43;5.6;;;2.8;;
79592;SDS011;69074;45.164;9.704;2023-05-07T09:39:08;5.6;;;2.8;;
79592;SDS011;69074;45.164;9.704;2023-05-07T09:41:33;5.6;;;2.8;;
79592;SDS011;69074;45.164;9.704;2023-05-07T09:43:58;5.6;;;2.8;;
79592;SDS011;69074;45.164;9.704;2023-05-07T09:46:25;5.6;;;2.8;;
79592;SDS011;69074;45.164;9.704;2023-05-07T09:48:48;4.0;;;2.4;;
79592;SDS011;69074;45.164;9.704;2023-05-07T09:51:16;4.0;;;2.4;;
79592;SDS011;69074;45.164;9.704;2023-05-07T09:53:38;4.0;;;2.4;;
79592;SDS011;69074;45.164;9.704;2023-05-07T09:56:03;4.0;;;2.4;;
79592;SDS011;69074;45.164;9.704;2023-05-07T09:58:28;4.0;;;2.4;;
79592;SDS011;69074;45.164;9.704;2023-05-07T10:00:53;4.0;;;2.4;;
79592;SDS011;69074;45.164;9.704;2023-05-07T10:03:18;2.5;;;2.3;;
79592;SDS011;69074;45.164;9.704;2023-05-07T10:05:43;2.5;;;2.3;;
79592;SDS011;69074;45.164;9.704;2023-05-07T10:08:08;2.5;;;2.3;;
79592;SDS011;69074;45.164;9.704;2023-05-07T10:10:33;2.5;;;2.3;;
79592;SDS011;69074;45.164;9.704;2023-05-07T10:12:58;2.5;;;2.3;;
79592;SDS011;69074;45.164;9.704;2023-05-07T10:15:23;2.5;;;2.3;;
79592;SDS011;69074;45.164;9.704;2023-05-07T10:17:48;2.5;;;2.3;;
79592;SDS011;69074;45.164;9.704;2023-05-07T10:20:13;2.7;;;2.2;;
79592;SDS011;69074;45.164;9.704;2023-05-07T10:22:41;2.7;;;2.2;;
79592;SDS011;69074;45.164;9.704;2023-05-07T10:25:04;2.7;;;2.2;;
79592;SDS011;69074;45.164;9.704;2023-05-07T10:27:28;2.7;;;2.2;;
79592;SDS011;69074;45.164;9.704;2023-05-07T10:29:56;2.7;;;2.2;;
79592;SDS011;69074;45.164;9.704;2023-05-07T10:32:25;2.7;;;2.2;;
79592;SDS011;69074;45.164;9.704;2023-05-07T10:34:44;3.2;;;2.9;;
79592;SDS011;69074;45.164;9.704;2023-05-07T10:37:08;3.2;;;2.9;;
79592;SDS011;69074;45.164;9.704;2023-05-07T10:39:34;3.2;;;2.9;;
79592;SDS011;69074;45.164;9.704;2023-05-07T10:42:06;3.2;;;2.9;;
79592;SDS011;69074;45.164;9.704;2023-05-07T10:44:25;3.2;;;2.9;;
79592;SDS011;69074;45.164;9.704;2023-05-07T10:46:59;3.2;;;2.9;;
79592;SDS011;69074;45.164;9.704;2023-05-07T10:49:14;3.5;;;2.6;;
79592;SDS011;69074;45.164;9.704;2023-05-07T10:51:38;3.5;;;2.6;;
79592;SDS011;69074;45.164;9.704;2023-05-07T10:54:19;3.5;;;2.6;;
79592;SDS011;69074;45.164;9.704;2023-05-07T10:56:28;3.5;;;2.6;;
79592;SDS011;69074;45.164;9.704;2023-05-07T10:58:53;3.5;;;2.6;;
79592;SDS011;69074;45.164;9.704;2023-05-07T11:01:49;3.5;;;2.6;;
79592;SDS011;69074;45.164;9.704;2023-05-07T11:04:12;3.4;;;2.8;;
79592;SDS011;69074;45.164;9.704;2023-05-07T11:06:09;3.4;;;2.8;;
79592;SDS011;69074;45.164;9.704;2023-05-07T11:08:51;3.4;;;2.8;;
79592;SDS011;69074;45.164;9.704;2023-05-07T11:10:59;3.4;;;2.8;;
79592;SDS011;69074;45.164;9.704;2023-05-07T11:13:55;3.4;;;2.8;;
79592;SDS011;69074;45.164;9.704;2023-05-07T11:15:48;3.4;;;2.8;;
79592;SDS011;69074;45.164;9.704;2023-05-07T11:18:14;3.1;;;2.5;;
79592;SDS011;69074;45.164;9.704;2023-05-07T11:20:55;3.1;;;2.5;;
79592;SDS011;69074;45.164;9.704;2023-05-07T11:23:03;3.1;;;2.5;;
79592;SDS011;69074;45.164;9.704;2023-05-07T11:25:28;3.1;;;2.5;;
79592;SDS011;69074;45.164;9.704;2023-05-07T11:27:53;3.1;;;2.5;;
79592;SDS011;69074;45.164;9.704;2023-05-07T11:30:18;3.1;;;2.5;;
79592;SDS011;69074;45.164;9.704;2023-05-07T11:32:44;3.1;;;2.5;;
79592;SDS011;69074;45.164;9.704;2023-05-07T11:35:08;6.0;;;3.9;;
79592;SDS011;69074;45.164;9.704;2023-05-07T11:37:33;6.0;;;3.9;;
79592;SDS011;69074;45.164;9.704;2023-05-07T11:40:02;6.0;;;3.9;;
79592;SDS011;69074;45.164;9.704;2023-05-07T11:42:25;6.0;;;3.9;;
79592;SDS011;69074;45.164;9.704;2023-05-07T11:44:48;6.0;;;3.9;;
79592;SDS011;69074;45.164;9.704;2023-05-07T11:47:16;6.0;;;3.9;;
79592;SDS011;69074;45.164;9.704;2023-05-07T11:49:38;4.5;;;2.7;;
79592;SDS011;69074;45.164;9.704;2023-05-07T11:52:03;4.5;;;2.7;;
79592;SDS011;69074;45.164;9.704;2023-05-07T11:54:34;4.5;;;2.7;;
79592;SDS011;69074;45.164;9.704;2023-05-07T11:56:53;4.5;;;2.7;;
79592;SDS011;69074;45.164;9.704;2023-05-07T11:59:18;4.5;;;2.7;;
79592;SDS011;69074;45.164;9.704;2023-05-07T12:01:45;4.5;;;2.7;;
79592;SDS011;69074;45.164;9.704;2023-05-07T12:04:09;3.5;;;2.8;;
79592;SDS011;69074;45.164;9.704;2023-05-07T12:06:36;3.5;;;2.8;;
79592;SDS011;69074;45.164;9.704;2023-05-07T12:08:58;3.5;;;2.8;;
79592;SDS011;69074;45.164;9.704;2023-05-07T12:11:24;3.5;;;2.8;;
79592;SDS011;69074;45.164;9.704;2023-05-07T12:13:48;3.5;;;2.8;;
79592;SDS011;69074;45.164;9.704;2023-05-07T12:16:13;3.5;;;2.8;;
79592;SDS011;69074;45.164;9.704;2023-05-07T12:18:38;3.0;;;2.7;;
79592;SDS011;69074;45.164;9.704;2023-05-07T12:21:04;3.0;;;2.7;;
79592;SDS011;69074;45.164;9.704;2023-05-07T12:23:28;3.0;;;2.7;;
79592;SDS011;69074;45.164;9.704;2023-05-07T12:25:53;3.0;;;2.7;;
79592;SDS011;69074;45.164;9.704;2023-05-07T12:28:19;3.0;;;2.7;;
79592;SDS011;69074;45.164;9.704;2023-05-07T12:30:44;3.0;;;2.7;;
79592;SDS011;69074;45.164;9.704;2023-05-07T12:33:09;3.7;;;2.7;;
79592;SDS011;69074;45.164;9.704;2023-05-07T12:35:35;3.7;;;2.7;;
79592;SDS011;69074;45.164;9.704;2023-05-07T12:37:59;3.7;;;2.7;;
79592;SDS011;69074;45.164;9.704;2023-05-07T12:40:24;3.7;;;2.7;;
79592;SDS011;69074;45.164;9.704;2023-05-07T12:42:49;3.7;;;2.7;;
79592;SDS011;69074;45.164;9.704;2023-05-07T12:45:15;3.7;;;2.7;;
79592;SDS011;69074;45.164;9.704;2023-05-07T12:47:39;3.7;;;2.7;;
79592;SDS011;69074;45.164;9.704;2023-05-07T12:50:04;3.8;;;3.2;;
79592;SDS011;69074;45.164;9.704;2023-05-07T12:52:29;3.8;;;3.2;;
79592;SDS011;69074;45.164;9.704;2023-05-07T12:54:54;3.8;;;3.2;;
79592;SDS011;69074;45.164;9.704;2023-05-07T12:57:19;3.8;;;3.2;;
79592;SDS011;69074;45.164;9.704;2023-05-07T12:59:44;3.8;;;3.2;;
79592;SDS011;69074;45.164;9.704;2023-05-07T13:02:09;3.8;;;3.2;;
79592;SDS011;69074;45.164;9.704;2023-05-07T13:04:34;2.9;;;2.7;;
79592;SDS011;69074;45.164;9.704;2023-05-07T13:06:59;2.9;;;2.7;;
79592;SDS011;69074;45.164;9.704;2023-05-07T13:09:24;2.9;;;2.7;;
79592;SDS011;69074;45.164;9.704;2023-05-07T13:11:49;2.9;;;2.7;;
79592;SDS011;69074;45.164;9.704;2023-05-07T13:14:14;2.9;;;2.7;;
79592;SDS011;69074;45.164;9.704;2023-05-07T13:16:39;2.9;;;2.7;;
79592;SDS011;69074;45.164;9.704;2023-05-07T13:19:04;2.9;;;2.6;;
79592;SDS011;69074;45.164;9.704;2023-05-07T13:21:29;2.9;;;2.6;;
79592;SDS011;69074;45.164;9.704;2023-05-07T13:23:54;2.9;;;2.6;;
79592;SDS011;69074;45.164;9.704;2023-05-07T13:26:19;2.9;;;2.6;;
79592;SDS011;69074;45.164;9.704;2023-05-07T13:28:44;2.9;;;2.6;;
79592;SDS011;69074;45.164;9.704;2023-05-07T13:31:09;2.9;;;2.6;;
79592;SDS011;69074;45.164;9.704;2023-05-07T13:33:34;7.9;;;7.2;;
79592;SDS011;69074;45.164;9.704;2023-05-07T13:35:59;7.9;;;7.2;;
79592;SDS011;69074;45.164;9.704;2023-05-07T13:38:24;7.9;;;7.2;;
79592;SDS011;69074;45.164;9.704;2023-05-07T13:40:49;7.9;;;7.2;;
79592;SDS011;69074;45.164;9.704;2023-05-07T13:43:14;7.9;;;7.2;;
79592;SDS011;69074;45.164;9.704;2023-05-07T13:45:39;7.9;;;7.2;;
79592;SDS011;69074;45.164;9.704;2023-05-07T13:48:04;30.0;;;27.1;;
79592;SDS011;69074;45.164;9.704;2023-05-07T13:50:29;30.0;;;27.1;;
79592;SDS011;69074;45.164;9.704;2023-05-07T13:52:54;30.0;;;27.1;;
79592;SDS011;69074;45.164;9.704;2023-05-07T13:55:19;30.0;;;27.1;;
79592;SDS011;69074;45.164;9.704;2023-05-07T13:57:44;30.0;;;27.1;;
79592;SDS011;69074;45.164;9.704;2023-05-07T14:00:09;30.0;;;27.1;;
79592;SDS011;69074;45.164;9.704;2023-05-07T14:02:34;30.0;;;27.1;;
79592;SDS011;69074;45.164;9.704;2023-05-07T14:04:59;26.2;;;23.8;;
79592;SDS011;69074;45.164;9.704;2023-05-07T14:07:24;26.2;;;23.8;;
79592;SDS011;69074;45.164;9.704;2023-05-07T14:09:49;26.2;;;23.8;;
79592;SDS011;69074;45.164;9.704;2023-05-07T14:12:14;26.2;;;23.8;;
79592;SDS011;69074;45.164;9.704;2023-05-07T14:14:39;26.2;;;23.8;;
79592;SDS011;69074;45.164;9.704;2023-05-07T14:17:04;26.2;;;23.8;;
79592;SDS011;69074;45.164;9.704;2023-05-07T14:19:29;21.7;;;19.7;;
79592;SDS011;69074;45.164;9.704;2023-05-07T14:21:54;21.7;;;19.7;;
79592;SDS011;69074;45.164;9.704;2023-05-07T14:24:19;21.7;;;19.7;;
79592;SDS011;69074;45.164;9.704;2023-05-07T14:26:44;21.7;;;19.7;;
79592;SDS011;69074;45.164;9.704;2023-05-07T14:29:09;21.7;;;19.7;;
79592;SDS011;69074;45.164;9.704;2023-05-07T14:31:34;21.7;;;19.7;;
79592;SDS011;69074;45.164;9.704;2023-05-07T14:33:59;19.1;;;17.3;;
79592;SDS011;69074;45.164;9.704;2023-05-07T14:36:24;19.1;;;17.3;;
79592;SDS011;69074;45.164;9.704;2023-05-07T14:38:49;19.1;;;17.3;;
79592;SDS011;69074;45.164;9.704;2023-05-07T14:41:14;19.1;;;17.3;;
79592;SDS011;69074;45.164;9.704;2023-05-07T14:43:39;19.1;;;17.3;;
79592;SDS011;69074;45.164;9.704;2023-05-07T14:46:04;19.1;;;17.3;;
79592;SDS011;69074;45.164;9.704;2023-05-07T14:48:29;15.4;;;14.1;;